createdAt,value
2018-11-25T00:01:15.274Z,68.93
2018-11-25T00:03:47.351Z,76.57
2018-11-25T00:06:18.871Z,71.10
2018-11-25T00:08:50.443Z,69.37
2018-11-25T00:11:22.096Z,70.07
2018-11-25T00:13:54.478Z,72.30
2018-11-25T00:16:26.990Z,78.07
2018-11-25T00:18:59.111Z,78.40
2018-11-25T00:21:30.952Z,78.03
2018-11-25T00:24:02.807Z,82.43
2018-11-25T00:26:34.635Z,77.67
2018-11-25T00:29:07.394Z,95.00
2018-11-25T00:31:40.359Z,81.77
2018-11-25T00:34:11.992Z,74.27
2018-11-25T00:36:50.020Z,88.67
2018-11-25T00:39:21.897Z,92.57
2018-11-25T00:41:53.162Z,85.17
2018-11-25T00:44:25.208Z,81.73
2018-11-25T00:46:57.084Z,70.83
2018-11-25T00:49:28.957Z,84.73
2018-11-25T00:52:00.667Z,86.10
2018-11-25T00:54:32.456Z,108.83
2018-11-25T00:57:05.002Z,96.20
2018-11-25T00:59:37.506Z,94.80
2018-11-25T01:02:08.629Z,114.67
2018-11-25T01:04:41.632Z,81.73
2018-11-25T01:07:13.832Z,106.93
2018-11-25T01:09:45.808Z,116.73
2018-11-25T01:12:17.657Z,90.23
2018-11-25T01:14:49.414Z,93.70
2018-11-25T01:17:20.816Z,97.27
2018-11-25T01:19:53.614Z,94.03
2018-11-25T01:22:24.961Z,82.13
2018-11-25T01:24:57.697Z,96.23
2018-11-25T01:27:31.409Z,104.83
2018-11-25T01:30:02.922Z,82.00
2018-11-25T01:32:35.414Z,96.53
2018-11-25T01:35:07.740Z,111.20
2018-11-25T01:37:41.164Z,108.10
2018-11-25T01:40:17.523Z,116.63
2018-11-25T01:42:49.834Z,114.17
2018-11-25T01:45:21.058Z,95.47
2018-11-25T01:47:52.494Z,135.27
2018-11-25T01:50:24.397Z,91.50
2018-11-25T01:52:55.612Z,138.23
2018-11-25T01:55:26.849Z,105.83
2018-11-25T01:57:58.805Z,125.10
2018-11-25T02:00:30.092Z,130.23
2018-11-25T02:03:01.995Z,152.87
2018-11-25T02:05:33.441Z,149.97
2018-11-25T02:08:05.135Z,154.50
2018-11-25T02:10:36.446Z,124.83
2018-11-25T02:13:07.993Z,134.83
2018-11-25T02:15:39.634Z,116.03
2018-11-25T02:18:11.065Z,148.00
2018-11-25T02:20:42.865Z,165.10
2018-11-25T02:23:14.285Z,178.60
2018-11-25T02:25:45.491Z,127.07
2018-11-25T02:28:17.282Z,141.93
2018-11-25T02:30:49.310Z,131.17
2018-11-25T02:33:21.289Z,161.87
2018-11-25T02:35:52.931Z,189.03
2018-11-25T02:38:24.383Z,143.70
2018-11-25T02:40:56.162Z,160.17
2018-11-25T02:43:28.105Z,165.63
2018-11-25T02:45:59.949Z,194.30
2018-11-25T02:48:31.834Z,201.33
2018-11-25T02:51:03.240Z,205.27
2018-11-25T02:53:34.354Z,214.10
2018-11-25T02:56:06.560Z,246.73
2018-11-25T02:58:37.344Z,261.97
2018-11-25T03:01:08.510Z,326.93
2018-11-25T03:03:39.938Z,267.83
2018-11-25T03:06:12.523Z,252.27
2018-11-25T03:08:43.635Z,289.80
2018-11-25T03:11:14.883Z,214.97
2018-11-25T03:13:46.853Z,266.47
2018-11-25T03:16:18.320Z,187.87
2018-11-25T03:18:49.555Z,223.13
2018-11-25T03:21:21.299Z,180.07
2018-11-25T03:23:53.664Z,254.57
2018-11-25T03:26:25.636Z,197.90
2018-11-25T03:28:57.199Z,183.27
2018-11-25T03:31:28.753Z,214.40
2018-11-25T03:34:00.241Z,167.70
2018-11-25T03:36:32.439Z,214.83
2018-11-25T03:39:04.082Z,180.67
2018-11-25T03:41:35.550Z,270.87
2018-11-25T03:44:06.736Z,205.13
2018-11-25T03:46:38.013Z,207.80
2018-11-25T03:49:09.682Z,225.87
2018-11-25T03:51:40.690Z,179.53
2018-11-25T03:54:12.114Z,216.53
2018-11-25T03:56:43.968Z,373.27
2018-11-25T03:59:15.945Z,169.90
2018-11-25T04:01:47.771Z,443.27
2018-11-25T04:04:18.977Z,210.07
2018-11-25T04:06:50.538Z,207.23
2018-11-25T04:09:22.033Z,151.07
2018-11-25T04:11:53.759Z,135.27
2018-11-25T04:14:25.222Z,148.00
2018-11-25T04:16:57.398Z,184.73
2018-11-25T04:19:29.014Z,142.47
2018-11-25T04:22:00.769Z,148.63
2018-11-25T04:24:32.664Z,137.37
2018-11-25T04:27:04.000Z,143.57
2018-11-25T04:29:35.684Z,132.93
2018-11-25T04:32:06.936Z,127.87
2018-11-25T04:34:38.293Z,116.17
2018-11-25T04:37:09.864Z,134.03
2018-11-25T04:39:41.376Z,105.23
2018-11-25T04:42:12.843Z,113.63
2018-11-25T04:44:45.127Z,114.90
2018-11-25T04:47:16.851Z,112.17
2018-11-25T04:49:48.006Z,127.73
2018-11-25T04:52:19.407Z,113.93
2018-11-25T04:54:51.680Z,124.50
2018-11-25T04:57:22.852Z,138.17
2018-11-25T04:59:54.076Z,134.33
2018-11-25T05:02:27.114Z,143.87
2018-11-25T05:05:00.985Z,147.93
2018-11-25T05:07:32.101Z,144.30
2018-11-25T05:10:04.014Z,131.17
2018-11-25T05:12:35.645Z,132.53
2018-11-25T05:15:08.020Z,147.30
2018-11-25T05:17:39.524Z,128.77
2018-11-25T05:20:11.762Z,117.23
2018-11-25T05:22:43.211Z,124.97
2018-11-25T05:25:17.090Z,141.60
2018-11-25T05:27:48.355Z,121.73
2018-11-25T05:30:20.431Z,110.17
2018-11-25T05:32:51.509Z,123.20
2018-11-25T05:35:22.809Z,124.10
2018-11-25T05:37:54.465Z,131.00
2018-11-25T05:40:25.442Z,112.57
2018-11-25T05:42:56.650Z,111.63
2018-11-25T05:45:28.279Z,108.47
2018-11-25T05:48:00.135Z,107.17
2018-11-25T05:50:31.919Z,92.37
2018-11-25T05:53:04.246Z,100.43
2018-11-25T05:55:36.240Z,91.87
2018-11-25T05:58:07.915Z,100.33
2018-11-25T06:00:39.901Z,101.17
2018-11-25T06:03:11.564Z,108.70
2018-11-25T06:05:42.824Z,95.07
2018-11-25T06:08:14.444Z,97.63
2018-11-25T06:10:46.234Z,92.87
2018-11-25T06:13:18.280Z,97.30
2018-11-25T06:15:49.751Z,91.30
2018-11-25T06:18:21.106Z,82.00
2018-11-25T06:20:52.845Z,99.90
2018-11-25T06:23:23.985Z,92.23
2018-11-25T06:25:55.558Z,103.73
2018-11-25T06:28:26.778Z,111.77
2018-11-25T06:30:58.321Z,98.43
2018-11-25T06:33:29.810Z,120.17
2018-11-25T06:36:01.164Z,114.57
2018-11-25T06:38:33.055Z,123.73
2018-11-25T06:41:04.593Z,103.37
2018-11-25T06:43:37.292Z,110.03
2018-11-25T06:46:10.423Z,100.60
2018-11-25T06:48:41.820Z,116.67
2018-11-25T06:51:12.446Z,134.00
2018-11-25T06:53:43.214Z,110.97
2018-11-25T06:56:14.533Z,106.63
2018-11-25T06:58:45.112Z,102.63
2018-11-25T07:01:15.904Z,106.10
2018-11-25T07:03:46.544Z,101.53
2018-11-25T07:06:17.210Z,100.17
2018-11-25T07:08:47.867Z,107.50
2018-11-25T07:11:18.678Z,96.03
2018-11-25T07:13:49.079Z,89.47
2018-11-25T07:16:19.827Z,94.83
2018-11-25T07:18:50.314Z,83.97
2018-11-25T07:21:21.347Z,93.83
2018-11-25T07:23:52.904Z,86.23
2018-11-25T07:26:24.333Z,92.07
2018-11-25T07:28:56.009Z,100.40
2018-11-25T07:31:27.269Z,99.30
2018-11-25T07:33:59.279Z,93.97
2018-11-25T07:36:32.063Z,83.10
2018-11-25T07:39:03.396Z,89.77
2018-11-25T07:41:34.941Z,82.30
2018-11-25T07:44:06.569Z,79.33
2018-11-25T07:46:38.463Z,72.57
2018-11-25T07:49:09.787Z,79.27
2018-11-25T07:51:41.514Z,69.90
2018-11-25T07:54:14.532Z,65.50
2018-11-25T07:56:45.480Z,61.27
2018-11-25T07:59:16.902Z,61.93
2018-11-25T08:01:48.306Z,55.50
2018-11-25T08:04:19.763Z,56.30
2018-11-25T08:06:50.325Z,51.77
2018-11-25T08:09:20.843Z,51.63
2018-11-25T08:11:51.951Z,48.77
2018-11-25T08:14:23.259Z,52.67
2018-11-25T08:16:56.691Z,46.73
2018-11-25T08:19:27.341Z,48.03
2018-11-25T08:21:58.111Z,48.40
2018-11-25T08:24:29.288Z,47.87
2018-11-25T08:27:00.015Z,45.23
2018-11-25T08:29:31.272Z,51.87
2018-11-25T08:32:02.566Z,49.40
2018-11-25T08:34:33.613Z,51.03
2018-11-25T08:37:04.271Z,49.83
2018-11-25T08:39:35.643Z,55.23
2018-11-25T08:42:07.311Z,58.53
2018-11-25T08:44:38.029Z,55.70
2018-11-25T08:47:08.897Z,57.90
2018-11-25T08:49:40.381Z,56.50
2018-11-25T08:52:12.146Z,62.73
2018-11-25T08:54:43.153Z,77.33
2018-11-25T08:57:13.957Z,76.80
2018-11-25T08:59:45.260Z,80.93
2018-11-25T09:02:18.748Z,79.17
2018-11-25T09:04:51.255Z,85.27
2018-11-25T09:07:22.021Z,84.97
2018-11-25T09:09:52.711Z,86.60
2018-11-25T09:12:23.908Z,85.27
2018-11-25T09:14:54.943Z,87.50
2018-11-25T09:17:32.101Z,86.87
2018-11-25T09:20:02.285Z,86.27
2018-11-25T09:22:32.960Z,96.40
2018-11-25T09:25:03.615Z,96.00
2018-11-25T09:27:35.070Z,89.07
2018-11-25T09:30:08.229Z,87.73
2018-11-25T09:32:39.091Z,75.23
2018-11-25T09:35:11.262Z,83.50
2018-11-25T09:37:44.209Z,77.80
2018-11-25T09:40:20.019Z,81.53
2018-11-25T09:42:52.537Z,72.07
2018-11-25T09:45:25.994Z,72.70
2018-11-25T09:47:57.561Z,78.50
2018-11-25T09:50:29.379Z,66.97
2018-11-25T09:53:01.260Z,72.40
2018-11-25T09:55:34.320Z,66.43
2018-11-25T09:58:06.620Z,70.40
2018-11-25T10:00:37.547Z,69.33
2018-11-25T10:03:09.427Z,61.23
2018-11-25T10:05:40.869Z,65.83
2018-11-25T10:08:17.160Z,65.80
2018-11-25T10:10:52.621Z,70.50
2018-11-25T10:13:20.180Z,76.23
2018-11-25T10:15:51.934Z,69.23
2018-11-25T10:18:23.533Z,75.13
2018-11-25T10:20:53.997Z,72.50
2018-11-25T10:23:25.741Z,62.10
2018-11-25T10:25:57.586Z,75.73
2018-11-25T10:28:29.855Z,68.80
2018-11-25T10:31:01.504Z,63.67
2018-11-25T10:33:45.352Z,68.93
2018-11-25T10:36:25.934Z,71.07
2018-11-25T10:39:14.486Z,60.37
2018-11-25T10:41:45.407Z,66.37
2018-11-25T10:44:18.175Z,63.83
2018-11-25T10:46:54.752Z,65.97
2018-11-25T10:49:27.030Z,64.53
2018-11-25T10:51:59.006Z,64.80
2018-11-25T10:54:30.450Z,63.03
2018-11-25T10:57:02.194Z,70.47
2018-11-25T10:59:34.447Z,65.23
2018-11-25T11:02:11.086Z,69.97
2018-11-25T11:04:46.789Z,64.90
2018-11-25T11:07:28.077Z,64.20
2018-11-25T11:09:59.825Z,64.47
2018-11-25T11:12:30.989Z,65.40
2018-11-25T11:15:01.854Z,66.10
2018-11-25T11:17:32.855Z,62.27
2018-11-25T11:20:04.255Z,69.30
2018-11-25T11:22:35.178Z,64.40
2018-11-25T11:25:06.666Z,58.00
2018-11-25T11:27:43.164Z,62.47
2018-11-25T11:30:13.851Z,56.67
2018-11-25T11:32:46.528Z,59.93
2018-11-25T11:35:17.469Z,54.27
2018-11-25T11:37:49.153Z,59.63
2018-11-25T11:40:20.854Z,51.03
2018-11-25T11:42:51.447Z,52.03
2018-11-25T11:45:28.031Z,51.73
2018-11-25T11:47:58.926Z,46.13
2018-11-25T11:50:30.097Z,43.53
2018-11-25T11:53:01.114Z,51.67
2018-11-25T11:55:31.603Z,47.60
2018-11-25T11:58:02.657Z,54.67
2018-11-25T12:00:35.024Z,51.27
2018-11-25T12:03:05.857Z,53.70
2018-11-25T12:05:37.102Z,59.50
2018-11-25T12:08:08.603Z,59.47
2018-11-25T12:10:39.713Z,63.23
2018-11-25T12:13:11.518Z,60.90
2018-11-25T12:15:42.436Z,59.70
2018-11-25T12:18:14.435Z,57.60
2018-11-25T12:20:46.125Z,58.80
2018-11-25T12:23:16.956Z,57.27
2018-11-25T12:25:47.746Z,60.60
2018-11-25T12:28:23.251Z,55.87
2018-11-25T12:30:54.382Z,59.50
2018-11-25T12:33:26.826Z,58.33
2018-11-25T12:35:57.394Z,63.93
2018-11-25T12:38:28.754Z,59.53
2018-11-25T12:41:00.635Z,53.73
2018-11-25T12:43:31.051Z,54.33
2018-11-25T12:46:01.485Z,55.83
2018-11-25T12:48:32.856Z,58.43
2018-11-25T12:51:03.474Z,54.63
2018-11-25T12:53:35.825Z,51.00
2018-11-25T12:56:06.499Z,52.80
2018-11-25T12:58:36.815Z,53.10
2018-11-25T13:01:07.165Z,55.70
2018-11-25T13:03:38.031Z,52.80
2018-11-25T13:06:08.259Z,55.40
2018-11-25T13:08:39.523Z,58.13
2018-11-25T13:11:09.749Z,49.83
2018-11-25T13:13:56.969Z,55.43
2018-11-25T13:16:27.209Z,58.97
2018-11-25T13:18:57.321Z,54.93
2018-11-25T13:21:27.510Z,49.80
2018-11-25T13:23:57.872Z,54.57
2018-11-25T13:26:28.594Z,51.33
2018-11-25T13:28:58.906Z,46.40
2018-11-25T13:31:29.230Z,50.17
2018-11-25T13:33:59.522Z,54.70
2018-11-25T13:36:30.627Z,50.30
2018-11-25T13:39:01.673Z,55.63
2018-11-25T13:41:31.710Z,52.57
2018-11-25T13:44:02.522Z,50.50
2018-11-25T13:46:34.165Z,50.73
2018-11-25T13:49:05.219Z,53.30
2018-11-25T13:51:37.777Z,51.10
2018-11-25T13:54:09.442Z,50.40
2018-11-25T13:56:41.824Z,51.00
2018-11-25T13:59:14.079Z,51.33
2018-11-25T14:01:45.942Z,53.33
2018-11-25T14:04:16.464Z,60.47
2018-11-25T14:06:47.200Z,59.73
2018-11-25T14:09:22.089Z,51.33
2018-11-25T14:11:53.218Z,57.47
2018-11-25T14:14:26.951Z,56.40
2018-11-25T14:16:59.319Z,60.27
2018-11-25T14:20:33.317Z,57.87
2018-11-25T14:23:04.052Z,65.60
2018-11-25T14:25:35.467Z,61.03
2018-11-25T14:28:09.439Z,63.60
2018-11-25T14:30:39.926Z,58.13
2018-11-25T14:33:10.874Z,62.97
2018-11-25T14:35:41.367Z,57.20
2018-11-25T14:38:12.315Z,62.23
2018-11-25T14:40:43.438Z,60.37
2018-11-25T14:43:14.677Z,50.27
2018-11-25T14:45:45.599Z,52.30
2018-11-25T14:48:15.984Z,57.30
2018-11-25T14:50:46.496Z,62.80
2018-11-25T14:53:17.359Z,55.57
2018-11-25T14:55:51.154Z,55.63
2018-11-25T14:58:25.223Z,54.60
2018-11-25T15:00:56.201Z,54.13
2018-11-25T15:03:26.682Z,59.57
2018-11-25T15:05:58.827Z,55.87
2018-11-25T15:08:33.251Z,57.27
2018-11-25T15:11:06.780Z,58.53
2018-11-25T15:13:38.582Z,59.97
2018-11-25T15:16:11.557Z,53.67
2018-11-25T15:18:43.977Z,55.37
2018-11-25T15:21:15.724Z,54.37
2018-11-25T15:23:47.318Z,55.30
2018-11-25T15:26:19.879Z,51.00
2018-11-25T15:28:51.110Z,54.93
2018-11-25T15:31:23.292Z,63.10
2018-11-25T15:33:54.812Z,53.90
2018-11-25T15:36:28.526Z,66.30
2018-11-25T15:39:00.644Z,62.47
2018-11-25T15:41:32.547Z,62.80
2018-11-25T15:44:03.611Z,63.77
2018-11-25T15:46:43.165Z,59.70
2018-11-25T15:50:33.552Z,66.43
2018-11-25T15:53:04.816Z,69.30
2018-11-25T15:55:36.301Z,66.10
2018-11-25T15:58:08.138Z,71.13
2018-11-25T16:00:39.628Z,67.93
2018-11-25T16:03:11.053Z,71.07
2018-11-25T16:05:44.535Z,74.80
2018-11-25T16:08:17.082Z,76.47
2018-11-25T16:10:51.124Z,81.60
2018-11-25T16:17:43.469Z,77.20
2018-11-25T16:20:44.772Z,72.80
2018-11-25T16:23:15.891Z,84.00
2018-11-25T16:25:53.443Z,72.27
2018-11-25T16:28:30.372Z,75.77
2018-11-25T16:31:03.180Z,82.43
2018-11-25T16:33:38.672Z,77.73
2018-11-25T16:36:10.610Z,83.23
2018-11-25T16:38:43.477Z,69.33
2018-11-25T16:41:14.814Z,68.90
2018-11-25T16:43:49.443Z,83.63
2018-11-25T16:46:55.371Z,73.50
2018-11-25T16:49:27.991Z,75.47
2018-11-25T16:52:01.168Z,65.53
2018-11-25T16:54:34.076Z,76.33
2018-11-25T16:57:25.343Z,80.70
2018-11-25T17:00:02.523Z,76.57
2018-11-25T17:02:42.831Z,81.27
2018-11-25T17:05:32.073Z,82.17
2018-11-25T17:08:46.355Z,75.03
2018-11-25T17:11:28.994Z,78.73
2018-11-25T17:14:12.182Z,81.40
2018-11-25T17:16:55.067Z,75.70
2018-11-25T17:19:40.822Z,75.10
2018-11-25T17:22:19.147Z,74.77
2018-11-25T17:25:04.485Z,75.00
2018-11-25T17:27:49.039Z,73.43
2018-11-25T17:30:34.899Z,72.20
2018-11-25T17:36:08.765Z,74.20
2018-11-25T17:38:50.997Z,73.63
2018-11-25T17:41:25.717Z,65.03
2018-11-25T17:44:00.565Z,67.93
2018-11-25T17:46:36.436Z,68.57
2018-11-25T17:49:14.283Z,72.77
2018-11-25T17:51:56.821Z,67.23
2018-11-25T17:54:34.619Z,67.60
2018-11-25T17:57:10.121Z,76.13
2018-11-25T17:59:43.710Z,70.30
2018-11-25T18:02:15.290Z,74.73
2018-11-25T18:04:47.215Z,73.03
2018-11-25T18:07:19.420Z,69.13
2018-11-25T18:09:51.844Z,68.37
2018-11-25T18:12:25.339Z,73.50
2018-11-25T18:14:57.750Z,67.27
2018-11-25T18:17:30.416Z,70.13
2018-11-25T18:20:02.929Z,74.57
2018-11-25T18:22:44.944Z,67.23
2018-11-25T18:25:16.658Z,72.63
2018-11-25T18:27:48.667Z,64.10
2018-11-25T18:30:20.435Z,74.70
2018-11-25T18:32:59.620Z,78.83
2018-11-25T18:35:30.544Z,136.77
2018-11-25T18:38:02.810Z,102.00
2018-11-25T18:40:35.907Z,84.00
2018-11-25T18:43:11.081Z,80.40
2018-11-25T18:45:42.720Z,73.33
2018-11-25T18:48:15.518Z,72.30
2018-11-25T18:50:49.098Z,70.60
2018-11-25T18:53:19.599Z,78.00
2018-11-25T18:55:49.970Z,77.00
2018-11-25T18:58:20.607Z,77.33
2018-11-25T19:00:57.578Z,78.00
2018-11-25T19:03:30.130Z,73.10
2018-11-25T19:06:02.145Z,74.37
2018-11-25T19:08:34.772Z,75.73
2018-11-25T19:11:07.572Z,75.47
2018-11-25T19:13:39.458Z,72.57
2018-11-25T19:16:11.122Z,68.13
2018-11-25T19:18:53.886Z,82.60
2018-11-25T19:21:27.918Z,89.47
2018-11-25T19:24:02.885Z,86.87
2018-11-25T19:26:47.970Z,89.63
2018-11-25T19:29:20.407Z,102.93
2018-11-25T19:31:53.834Z,74.60
2018-11-25T19:34:27.597Z,70.90
2018-11-25T19:37:00.100Z,81.03
2018-11-25T19:39:33.090Z,96.10
2018-11-25T19:42:05.362Z,74.23
2018-11-25T19:44:37.682Z,67.70
2018-11-25T19:47:11.250Z,75.90
2018-11-25T19:49:43.436Z,80.20
2018-11-25T19:52:15.645Z,67.70
2018-11-25T19:54:47.709Z,71.80
2018-11-25T19:57:20.786Z,62.90
2018-11-25T19:59:52.148Z,64.60
2018-11-25T20:02:23.956Z,74.77
2018-11-25T20:04:54.684Z,77.10
2018-11-25T20:07:25.898Z,95.13
2018-11-25T20:09:57.182Z,64.43
2018-11-25T20:12:36.895Z,67.60
2018-11-25T20:15:08.672Z,66.87
2018-11-25T20:17:40.108Z,66.07
2018-11-25T20:20:15.118Z,68.47
2018-11-25T20:22:46.891Z,64.60
2018-11-25T20:25:18.611Z,65.00
2018-11-25T20:27:51.934Z,64.50
2018-11-25T20:30:28.534Z,64.83
2018-11-25T20:33:05.414Z,60.53
2018-11-25T20:35:36.899Z,60.77
2018-11-25T20:38:14.342Z,60.27
2018-11-25T20:40:48.953Z,70.33
2018-11-25T20:43:21.032Z,68.07
2018-11-25T20:45:56.977Z,65.50
2018-11-25T20:48:28.340Z,76.93
2018-11-25T20:51:16.902Z,67.17
2018-11-25T20:53:55.736Z,75.37
2018-11-25T20:56:26.409Z,74.37
2018-11-25T20:59:02.969Z,79.07
2018-11-25T21:01:34.700Z,78.50
2018-11-25T21:04:09.383Z,85.50
2018-11-25T21:06:41.604Z,73.40
2018-11-25T21:09:12.244Z,80.73
2018-11-25T21:11:44.404Z,74.37
2018-11-25T21:14:15.834Z,74.37
2018-11-25T21:16:46.784Z,77.23
2018-11-25T21:19:18.456Z,73.90
2018-11-25T21:21:53.155Z,81.53
2018-11-25T21:24:28.123Z,85.10
2018-11-25T21:27:00.294Z,80.47
2018-11-25T21:29:32.977Z,80.90
2018-11-25T21:32:03.858Z,84.80
2018-11-25T21:34:34.745Z,81.90
2018-11-25T21:37:08.052Z,79.17
2018-11-25T21:39:39.646Z,83.07
2018-11-25T21:42:14.182Z,75.23
2018-11-25T21:44:48.004Z,75.73
2018-11-25T21:47:18.669Z,85.73
2018-11-25T21:49:50.654Z,96.20
2018-11-25T21:52:22.283Z,93.47
2018-11-25T21:54:54.751Z,89.17
2018-11-25T21:57:29.721Z,85.30
2018-11-25T22:00:05.870Z,89.03
2018-11-25T22:02:38.628Z,91.33
2018-11-25T22:05:11.645Z,99.67
2018-11-25T22:07:43.485Z,104.47
2018-11-25T22:10:19.205Z,97.10
2018-11-25T22:12:52.222Z,96.67
2018-11-25T22:15:29.217Z,95.10
2018-11-25T22:18:01.936Z,94.27
2018-11-25T22:20:35.368Z,94.73
2018-11-25T22:23:08.138Z,99.43
2018-11-25T22:25:41.563Z,90.90
2018-11-25T22:28:14.258Z,103.17
2018-11-25T22:30:46.482Z,93.70
2018-11-25T22:33:18.664Z,106.10
2018-11-25T22:35:50.104Z,110.97
2018-11-25T22:38:24.084Z,97.67
2018-11-25T22:40:56.706Z,112.40
2018-11-25T22:43:27.725Z,112.07
2018-11-25T22:45:59.777Z,105.77
2018-11-25T22:48:31.716Z,109.80
2018-11-25T22:51:04.259Z,103.53
2018-11-25T22:53:35.499Z,105.50
2018-11-25T22:56:07.937Z,100.13
2018-11-25T22:58:39.233Z,115.27
2018-11-25T23:01:10.475Z,102.27
2018-11-25T23:03:42.240Z,105.07
2018-11-25T23:06:24.372Z,107.40
2018-11-25T23:08:57.522Z,103.77
2018-11-25T23:11:29.748Z,106.67
2018-11-25T23:14:00.916Z,100.83
2018-11-25T23:16:32.001Z,109.57
2018-11-25T23:19:03.779Z,110.60
2018-11-25T23:21:35.472Z,100.13
2018-11-25T23:24:08.078Z,95.53
2018-11-25T23:26:40.711Z,104.73
2018-11-25T23:29:12.746Z,103.73
2018-11-25T23:31:44.992Z,99.77
2018-11-25T23:34:17.103Z,96.57
2018-11-25T23:36:49.430Z,100.13
2018-11-25T23:39:21.674Z,90.27
2018-11-25T23:41:53.850Z,106.50
2018-11-25T23:44:25.115Z,96.10
2018-11-25T23:46:56.647Z,93.80
2018-11-25T23:49:29.091Z,99.07
2018-11-25T23:52:01.230Z,81.83
2018-11-25T23:54:33.808Z,89.77
2018-11-25T23:57:05.374Z,87.77
2018-11-25T23:59:37.225Z,81.83
